sensor_id;sensor_type;location;lat;lon;timestamp;P1;P2;P0
64138;PMS5003;50435;43.700;-79.318;2022-12-11T00:01:09;5;4;
64138;PMS5003;50435;43.700;-79.318;2022-12-11T00:03:37;3;3;
64138;PMS5003;50435;43.700;-79.318;2022-12-11T00:06:06;5;5;
64138;PMS5003;50435;43.700;-79.318;2022-12-11T00:08:36;4;4;
64138;PMS5003;50435;43.700;-79.318;2022-12-11T00:11:06;4;3;
64138;PMS5003;50435;43.700;-79.318;2022-12-11T00:13:34;7;7;
64138;PMS5003;50435;43.700;-79.318;2022-12-11T00:16:02;9;5;
64138;PMS5003;50435;43.700;-79.318;2022-12-11T00:18:29;4;3;
64138;PMS5003;50435;43.700;-79.318;2022-12-11T00:20:58;5;4;
64138;PMS5003;50435;43.700;-79.318;2022-12-11T00:23:27;4;4;
64138;PMS5003;50435;43.700;-79.318;2022-12-11T00:25:54;4;4;
64138;PMS5003;50435;43.700;-79.318;2022-12-11T00:28:22;9;8;
64138;PMS5003;50435;43.700;-79.318;2022-12-11T00:30:50;5;5;
64138;PMS5003;50435;43.700;-79.318;2022-12-11T00:33:17;4;4;
64138;PMS5003;50435;43.700;-79.318;2022-12-11T00:35:45;4;4;
64138;PMS5003;50435;43.700;-79.318;2022-12-11T00:38:13;7;7;
64138;PMS5003;50435;43.700;-79.318;2022-12-11T00:40:41;4;4;
64138;PMS5003;50435;43.700;-79.318;2022-12-11T00:43:08;7;7;
64138;PMS5003;50435;43.700;-79.318;2022-12-11T00:45:36;4;4;
64138;PMS5003;50435;43.700;-79.318;2022-12-11T00:48:04;4;3;
64138;PMS5003;50435;43.700;-79.318;2022-12-11T00:50:32;7;7;
64138;PMS5003;50435;43.700;-79.318;2022-12-11T00:53:01;8;8;
64138;PMS5003;50435;43.700;-79.318;2022-12-11T00:55:28;7;4;
64138;PMS5003;50435;43.700;-79.318;2022-12-11T00:57:57;7;7;
64138;PMS5003;50435;43.700;-79.318;2022-12-11T01:00:25;5;4;
64138;PMS5003;50435;43.700;-79.318;2022-12-11T01:02:52;7;5;
64138;PMS5003;50435;43.700;-79.318;2022-12-11T01:05:19;4;4;
64138;PMS5003;50435;43.700;-79.318;2022-12-11T01:07:47;7;7;
64138;PMS5003;50435;43.700;-79.318;2022-12-11T01:10:14;8;8;
64138;PMS5003;50435;43.700;-79.318;2022-12-11T01:12:42;5;5;
64138;PMS5003;50435;43.700;-79.318;2022-12-11T01:15:10;9;8;
64138;PMS5003;50435;43.700;-79.318;2022-12-11T01:17:37;9;7;
64138;PMS5003;50435;43.700;-79.318;2022-12-11T01:20:05;7;7;
64138;PMS5003;50435;43.700;-79.318;2022-12-11T01:22:34;8;7;
64138;PMS5003;50435;43.700;-79.318;2022-12-11T01:25:01;8;7;
64138;PMS5003;50435;43.700;-79.318;2022-12-11T01:27:29;4;4;
64138;PMS5003;50435;43.700;-79.318;2022-12-11T01:27:39;4;4;
64138;PMS5003;50435;43.700;-79.318;2022-12-11T01:30:07;8;7;
64138;PMS5003;50435;43.700;-79.318;2022-12-11T01:32:35;7;7;
64138;PMS5003;50435;43.700;-79.318;2022-12-11T01:35:03;8;7;
64138;PMS5003;50435;43.700;-79.318;2022-12-11T01:37:32;6;5;
64138;PMS5003;50435;43.700;-79.318;2022-12-11T01:40:00;4;4;
64138;PMS5003;50435;43.700;-79.318;2022-12-11T01:42:29;8;8;
64138;PMS5003;50435;43.700;-79.318;2022-12-11T01:45:28;5;4;
64138;PMS5003;50435;43.700;-79.318;2022-12-11T01:48:01;8;8;
64138;PMS5003;50435;43.700;-79.318;2022-12-11T01:50:35;5;5;
64138;PMS5003;50435;43.700;-79.318;2022-12-11T01:53:06;5;5;
64138;PMS5003;50435;43.700;-79.318;2022-12-11T01:55:35;8;5;
64138;PMS5003;50435;43.700;-79.318;2022-12-11T01:58:06;12;9;
64138;PMS5003;50435;43.700;-79.318;2022-12-11T02:00:36;9;7;
64138;PMS5003;50435;43.700;-79.318;2022-12-11T02:03:04;5;4;
64138;PMS5003;50435;43.700;-79.318;2022-12-11T02:05:31;5;5;
64138;PMS5003;50435;43.700;-79.318;2022-12-11T02:07:59;7;5;
64138;PMS5003;50435;43.700;-79.318;2022-12-11T02:10:31;9;8;
64138;PMS5003;50435;43.700;-79.318;2022-12-11T02:13:15;4;4;
64138;PMS5003;50435;43.700;-79.318;2022-12-11T02:15:48;12;11;
64138;PMS5003;50435;43.700;-79.318;2022-12-11T02:18:24;7;7;
64138;PMS5003;50435;43.700;-79.318;2022-12-11T02:20:58;8;8;
64138;PMS5003;50435;43.700;-79.318;2022-12-11T02:23:41;8;8;
64138;PMS5003;50435;43.700;-79.318;2022-12-11T02:26:30;4;4;
64138;PMS5003;50435;43.700;-79.318;2022-12-11T02:29:11;9;8;
64138;PMS5003;50435;43.700;-79.318;2022-12-11T02:31:45;9;8;
64138;PMS5003;50435;43.700;-79.318;2022-12-11T02:34:17;8;8;
64138;PMS5003;50435;43.700;-79.318;2022-12-11T02:36:50;8;8;
64138;PMS5003;50435;43.700;-79.318;2022-12-11T02:39:21;7;7;
64138;PMS5003;50435;43.700;-79.318;2022-12-11T02:41:51;8;8;
64138;PMS5003;50435;43.700;-79.318;2022-12-11T02:44:21;7;7;
64138;PMS5003;50435;43.700;-79.318;2022-12-11T02:46:51;9;9;
64138;PMS5003;50435;43.700;-79.318;2022-12-11T02:49:20;9;8;
64138;PMS5003;50435;43.700;-79.318;2022-12-11T02:51:50;14;14;
64138;PMS5003;50435;43.700;-79.318;2022-12-11T02:54:20;10;7;
64138;PMS5003;50435;43.700;-79.318;2022-12-11T02:56:55;11;8;
64138;PMS5003;50435;43.700;-79.318;2022-12-11T02:59:29;11;10;
64138;PMS5003;50435;43.700;-79.318;2022-12-11T03:02:00;15;12;
64138;PMS5003;50435;43.700;-79.318;2022-12-11T03:04:27;10;9;
64138;PMS5003;50435;43.700;-79.318;2022-12-11T03:06:57;11;11;
64138;PMS5003;50435;43.700;-79.318;2022-12-11T03:09:28;8;8;
64138;PMS5003;50435;43.700;-79.318;2022-12-11T03:11:56;9;8;
64138;PMS5003;50435;43.700;-79.318;2022-12-11T03:14:23;11;8;
64138;PMS5003;50435;43.700;-79.318;2022-12-11T03:16:52;9;9;
64138;PMS5003;50435;43.700;-79.318;2022-12-11T03:19:27;8;7;
64138;PMS5003;50435;43.700;-79.318;2022-12-11T03:22:01;9;9;
64138;PMS5003;50435;43.700;-79.318;2022-12-11T03:24:35;7;7;
64138;PMS5003;50435;43.700;-79.318;2022-12-11T03:27:08;10;9;
64138;PMS5003;50435;43.700;-79.318;2022-12-11T03:29:43;7;7;
64138;PMS5003;50435;43.700;-79.318;2022-12-11T03:32:17;8;8;
64138;PMS5003;50435;43.700;-79.318;2022-12-11T03:34:50;10;10;
64138;PMS5003;50435;43.700;-79.318;2022-12-11T03:40:11;11;9;
64138;PMS5003;50435;43.700;-79.318;2022-12-11T03:42:41;10;8;
64138;PMS5003;50435;43.700;-79.318;2022-12-11T03:45:11;10;9;
64138;PMS5003;50435;43.700;-79.318;2022-12-11T03:47:39;10;10;
64138;PMS5003;50435;43.700;-79.318;2022-12-11T03:50:10;8;8;
64138;PMS5003;50435;43.700;-79.318;2022-12-11T03:52:40;7;7;
64138;PMS5003;50435;43.700;-79.318;2022-12-11T03:56:47;9;8;
64138;PMS5003;50435;43.700;-79.318;2022-12-11T03:59:16;10;9;
64138;PMS5003;50435;43.700;-79.318;2022-12-11T04:01:44;9;9;
64138;PMS5003;50435;43.700;-79.318;2022-12-11T04:04:11;11;11;
64138;PMS5003;50435;43.700;-79.318;2022-12-11T04:06:39;11;10;
64138;PMS5003;50435;43.700;-79.318;2022-12-11T04:09:07;12;10;
64138;PMS5003;50435;43.700;-79.318;2022-12-11T04:11:34;9;9;
64138;PMS5003;50435;43.700;-79.318;2022-12-11T04:14:02;16;11;
64138;PMS5003;50435;43.700;-79.318;2022-12-11T04:16:32;11;11;
64138;PMS5003;50435;43.700;-79.318;2022-12-11T04:18:59;11;9;
64138;PMS5003;50435;43.700;-79.318;2022-12-11T04:21:26;12;12;
64138;PMS5003;50435;43.700;-79.318;2022-12-11T04:39:27;11;10;
64138;PMS5003;50435;43.700;-79.318;2022-12-11T04:41:54;12;11;
64138;PMS5003;50435;43.700;-79.318;2022-12-11T04:44:22;9;9;
64138;PMS5003;50435;43.700;-79.318;2022-12-11T04:46:49;11;10;
64138;PMS5003;50435;43.700;-79.318;2022-12-11T04:49:16;10;10;
64138;PMS5003;50435;43.700;-79.318;2022-12-11T04:51:44;10;9;
64138;PMS5003;50435;43.700;-79.318;2022-12-11T04:54:11;14;11;
64138;PMS5003;50435;43.700;-79.318;2022-12-11T04:56:38;7;7;
64138;PMS5003;50435;43.700;-79.318;2022-12-11T04:59:06;9;8;
64138;PMS5003;50435;43.700;-79.318;2022-12-11T05:01:33;11;11;
64138;PMS5003;50435;43.700;-79.318;2022-12-11T05:03:10;11;11;
64138;PMS5003;50435;43.700;-79.318;2022-12-11T05:05:38;11;10;
64138;PMS5003;50435;43.700;-79.318;2022-12-11T05:08:05;10;10;
64138;PMS5003;50435;43.700;-79.318;2022-12-11T05:10:33;14;11;
64138;PMS5003;50435;43.700;-79.318;2022-12-11T05:13:00;8;8;
64138;PMS5003;50435;43.700;-79.318;2022-12-11T05:15:28;10;8;
64138;PMS5003;50435;43.700;-79.318;2022-12-11T05:17:55;8;7;
64138;PMS5003;50435;43.700;-79.318;2022-12-11T05:20:22;10;9;
64138;PMS5003;50435;43.700;-79.318;2022-12-11T05:22:50;8;7;
64138;PMS5003;50435;43.700;-79.318;2022-12-11T05:25:17;8;8;
64138;PMS5003;50435;43.700;-79.318;2022-12-11T05:27:44;8;8;
64138;PMS5003;50435;43.700;-79.318;2022-12-11T05:30:12;9;9;
64138;PMS5003;50435;43.700;-79.318;2022-12-11T05:32:39;8;7;
64138;PMS5003;50435;43.700;-79.318;2022-12-11T05:35:07;10;7;
64138;PMS5003;50435;43.700;-79.318;2022-12-11T05:37:35;10;10;
64138;PMS5003;50435;43.700;-79.318;2022-12-11T05:40:02;14;8;
64138;PMS5003;50435;43.700;-79.318;2022-12-11T05:42:30;14;10;
64138;PMS5003;50435;43.700;-79.318;2022-12-11T05:44:57;8;8;
64138;PMS5003;50435;43.700;-79.318;2022-12-11T05:47:25;9;8;
64138;PMS5003;50435;43.700;-79.318;2022-12-11T05:49:52;8;8;
64138;PMS5003;50435;43.700;-79.318;2022-12-11T05:52:19;9;8;
64138;PMS5003;50435;43.700;-79.318;2022-12-11T05:54:47;9;9;
64138;PMS5003;50435;43.700;-79.318;2022-12-11T05:57:15;9;9;
64138;PMS5003;50435;43.700;-79.318;2022-12-11T05:59:43;11;10;
64138;PMS5003;50435;43.700;-79.318;2022-12-11T06:02:11;10;9;
64138;PMS5003;50435;43.700;-79.318;2022-12-11T06:04:38;9;9;
64138;PMS5003;50435;43.700;-79.318;2022-12-11T06:07:06;9;9;
64138;PMS5003;50435;43.700;-79.318;2022-12-11T06:09:33;7;7;
64138;PMS5003;50435;43.700;-79.318;2022-12-11T06:12:00;12;8;
64138;PMS5003;50435;43.700;-79.318;2022-12-11T06:14:28;8;8;
64138;PMS5003;50435;43.700;-79.318;2022-12-11T06:16:55;10;9;
64138;PMS5003;50435;43.700;-79.318;2022-12-11T06:19:23;9;9;
64138;PMS5003;50435;43.700;-79.318;2022-12-11T06:21:50;8;8;
64138;PMS5003;50435;43.700;-79.318;2022-12-11T06:24:17;9;9;
64138;PMS5003;50435;43.700;-79.318;2022-12-11T06:26:45;12;9;
64138;PMS5003;50435;43.700;-79.318;2022-12-11T06:29:12;9;9;
64138;PMS5003;50435;43.700;-79.318;2022-12-11T06:31:39;8;8;
64138;PMS5003;50435;43.700;-79.318;2022-12-11T06:34:07;10;10;
64138;PMS5003;50435;43.700;-79.318;2022-12-11T06:36:37;11;9;
64138;PMS5003;50435;43.700;-79.318;2022-12-11T06:39:04;8;7;
64138;PMS5003;50435;43.700;-79.318;2022-12-11T06:41:31;9;5;
64138;PMS5003;50435;43.700;-79.318;2022-12-11T06:43:59;10;9;
64138;PMS5003;50435;43.700;-79.318;2022-12-11T06:46:27;11;11;
64138;PMS5003;50435;43.700;-79.318;2022-12-11T06:48:54;9;9;
64138;PMS5003;50435;43.700;-79.318;2022-12-11T06:51:22;9;9;
64138;PMS5003;50435;43.700;-79.318;2022-12-11T06:53:50;8;8;
64138;PMS5003;50435;43.700;-79.318;2022-12-11T06:56:18;7;7;
64138;PMS5003;50435;43.700;-79.318;2022-12-11T06:58:46;10;9;
64138;PMS5003;50435;43.700;-79.318;2022-12-11T07:01:15;11;9;
64138;PMS5003;50435;43.700;-79.318;2022-12-11T07:03:44;11;11;
64138;PMS5003;50435;43.700;-79.318;2022-12-11T07:06:13;10;10;
64138;PMS5003;50435;43.700;-79.318;2022-12-11T07:08:41;13;11;
64138;PMS5003;50435;43.700;-79.318;2022-12-11T07:11:09;9;9;
64138;PMS5003;50435;43.700;-79.318;2022-12-11T07:13:38;11;9;
64138;PMS5003;50435;43.700;-79.318;2022-12-11T07:16:06;10;10;
64138;PMS5003;50435;43.700;-79.318;2022-12-11T07:18:35;10;9;
64138;PMS5003;50435;43.700;-79.318;2022-12-11T07:21:05;9;9;
64138;PMS5003;50435;43.700;-79.318;2022-12-11T07:23:34;12;11;
64138;PMS5003;50435;43.700;-79.318;2022-12-11T07:26:03;9;8;
64138;PMS5003;50435;43.700;-79.318;2022-12-11T07:28:31;11;11;
64138;PMS5003;50435;43.700;-79.318;2022-12-11T07:31:03;14;12;
64138;PMS5003;50435;43.700;-79.318;2022-12-11T07:33:31;10;10;
64138;PMS5003;50435;43.700;-79.318;2022-12-11T07:35:59;13;11;
64138;PMS5003;50435;43.700;-79.318;2022-12-11T07:38:27;7;7;
64138;PMS5003;50435;43.700;-79.318;2022-12-11T07:40:55;14;12;
64138;PMS5003;50435;43.700;-79.318;2022-12-11T07:43:26;10;10;
64138;PMS5003;50435;43.700;-79.318;2022-12-11T07:45:53;10;10;
64138;PMS5003;50435;43.700;-79.318;2022-12-11T07:48:21;12;12;
64138;PMS5003;50435;43.700;-79.318;2022-12-11T07:50:48;10;10;
64138;PMS5003;50435;43.700;-79.318;2022-12-11T07:53:15;11;11;
64138;PMS5003;50435;43.700;-79.318;2022-12-11T07:55:43;8;8;
64138;PMS5003;50435;43.700;-79.318;2022-12-11T07:58:10;15;14;
64138;PMS5003;50435;43.700;-79.318;2022-12-11T08:00:38;8;8;
64138;PMS5003;50435;43.700;-79.318;2022-12-11T08:03:05;8;8;
64138;PMS5003;50435;43.700;-79.318;2022-12-11T08:05:32;11;10;
64138;PMS5003;50435;43.700;-79.318;2022-12-11T08:08:00;9;9;
64138;PMS5003;50435;43.700;-79.318;2022-12-11T08:10:27;9;9;
64138;PMS5003;50435;43.700;-79.318;2022-12-11T08:12:55;10;9;
64138;PMS5003;50435;43.700;-79.318;2022-12-11T08:15:22;11;9;
64138;PMS5003;50435;43.700;-79.318;2022-12-11T08:17:49;14;9;
64138;PMS5003;50435;43.700;-79.318;2022-12-11T08:20:17;12;11;
64138;PMS5003;50435;43.700;-79.318;2022-12-11T08:22:45;15;14;
64138;PMS5003;50435;43.700;-79.318;2022-12-11T08:25:12;10;10;
64138;PMS5003;50435;43.700;-79.318;2022-12-11T08:27:40;9;9;
64138;PMS5003;50435;43.700;-79.318;2022-12-11T08:30:07;14;14;
64138;PMS5003;50435;43.700;-79.318;2022-12-11T08:32:36;10;10;
64138;PMS5003;50435;43.700;-79.318;2022-12-11T08:35:04;10;10;
64138;PMS5003;50435;43.700;-79.318;2022-12-11T08:37:32;12;12;
64138;PMS5003;50435;43.700;-79.318;2022-12-11T08:40:00;11;9;
64138;PMS5003;50435;43.700;-79.318;2022-12-11T08:42:27;12;10;
64138;PMS5003;50435;43.700;-79.318;2022-12-11T08:44:55;12;11;
64138;PMS5003;50435;43.700;-79.318;2022-12-11T08:47:22;11;10;
64138;PMS5003;50435;43.700;-79.318;2022-12-11T08:49:50;10;10;
64138;PMS5003;50435;43.700;-79.318;2022-12-11T08:52:17;10;10;
64138;PMS5003;50435;43.700;-79.318;2022-12-11T08:54:45;11;11;
64138;PMS5003;50435;43.700;-79.318;2022-12-11T08:57:12;10;10;
64138;PMS5003;50435;43.700;-79.318;2022-12-11T08:59:39;15;14;
64138;PMS5003;50435;43.700;-79.318;2022-12-11T09:02:09;14;10;
64138;PMS5003;50435;43.700;-79.318;2022-12-11T09:04:37;11;11;
64138;PMS5003;50435;43.700;-79.318;2022-12-11T09:07:05;16;16;
64138;PMS5003;50435;43.700;-79.318;2022-12-11T09:09:32;14;11;
64138;PMS5003;50435;43.700;-79.318;2022-12-11T09:11:59;16;14;
64138;PMS5003;50435;43.700;-79.318;2022-12-11T09:14:26;16;15;
64138;PMS5003;50435;43.700;-79.318;2022-12-11T09:16:54;11;11;
64138;PMS5003;50435;43.700;-79.318;2022-12-11T09:19:21;12;12;
64138;PMS5003;50435;43.700;-79.318;2022-12-11T09:21:49;14;11;
64138;PMS5003;50435;43.700;-79.318;2022-12-11T09:24:16;12;12;
64138;PMS5003;50435;43.700;-79.318;2022-12-11T09:26:44;17;14;
64138;PMS5003;50435;43.700;-79.318;2022-12-11T09:29:11;18;15;
64138;PMS5003;50435;43.700;-79.318;2022-12-11T09:31:39;12;12;
64138;PMS5003;50435;43.700;-79.318;2022-12-11T09:34:07;16;15;
64138;PMS5003;50435;43.700;-79.318;2022-12-11T09:36:37;21;16;
64138;PMS5003;50435;43.700;-79.318;2022-12-11T09:39:07;14;12;
64138;PMS5003;50435;43.700;-79.318;2022-12-11T09:41:36;16;16;
64138;PMS5003;50435;43.700;-79.318;2022-12-11T09:44:12;16;14;
64138;PMS5003;50435;43.700;-79.318;2022-12-11T09:46:44;15;14;
64138;PMS5003;50435;43.700;-79.318;2022-12-11T09:49:15;21;21;
64138;PMS5003;50435;43.700;-79.318;2022-12-11T09:51:50;19;15;
64138;PMS5003;50435;43.700;-79.318;2022-12-11T09:54:26;11;10;
64138;PMS5003;50435;43.700;-79.318;2022-12-11T09:56:56;16;14;
64138;PMS5003;50435;43.700;-79.318;2022-12-11T09:59:31;15;15;
64138;PMS5003;50435;43.700;-79.318;2022-12-11T10:02:14;15;15;
64138;PMS5003;50435;43.700;-79.318;2022-12-11T10:04:54;16;16;
64138;PMS5003;50435;43.700;-79.318;2022-12-11T10:07:36;19;17;
64138;PMS5003;50435;43.700;-79.318;2022-12-11T10:10:11;14;14;
64138;PMS5003;50435;43.700;-79.318;2022-12-11T10:12:50;16;14;
64138;PMS5003;50435;43.700;-79.318;2022-12-11T10:15:27;18;17;
64138;PMS5003;50435;43.700;-79.318;2022-12-11T10:18:03;23;21;
64138;PMS5003;50435;43.700;-79.318;2022-12-11T10:20:35;11;11;
64138;PMS5003;50435;43.700;-79.318;2022-12-11T10:23:05;16;16;
64138;PMS5003;50435;43.700;-79.318;2022-12-11T10:25:35;12;12;
64138;PMS5003;50435;43.700;-79.318;2022-12-11T10:28:08;15;12;
64138;PMS5003;50435;43.700;-79.318;2022-12-11T10:30:38;19;17;
64138;PMS5003;50435;43.700;-79.318;2022-12-11T10:33:13;16;16;
64138;PMS5003;50435;43.700;-79.318;2022-12-11T10:35:47;16;14;
64138;PMS5003;50435;43.700;-79.318;2022-12-11T10:38:20;15;14;
64138;PMS5003;50435;43.700;-79.318;2022-12-11T10:40:51;17;17;
64138;PMS5003;50435;43.700;-79.318;2022-12-11T10:43:30;17;16;
64138;PMS5003;50435;43.700;-79.318;2022-12-11T10:45:59;17;17;
64138;PMS5003;50435;43.700;-79.318;2022-12-11T10:48:27;15;15;
64138;PMS5003;50435;43.700;-79.318;2022-12-11T10:50:56;16;16;
64138;PMS5003;50435;43.700;-79.318;2022-12-11T10:53:25;16;16;
64138;PMS5003;50435;43.700;-79.318;2022-12-11T10:55:53;18;16;
64138;PMS5003;50435;43.700;-79.318;2022-12-11T10:58:22;17;16;
64138;PMS5003;50435;43.700;-79.318;2022-12-11T11:01:05;12;12;
64138;PMS5003;50435;43.700;-79.318;2022-12-11T11:03:50;18;16;
64138;PMS5003;50435;43.700;-79.318;2022-12-11T11:06:20;16;15;
64138;PMS5003;50435;43.700;-79.318;2022-12-11T11:08:49;14;14;
64138;PMS5003;50435;43.700;-79.318;2022-12-11T11:11:21;19;18;
64138;PMS5003;50435;43.700;-79.318;2022-12-11T11:13:50;17;16;
64138;PMS5003;50435;43.700;-79.318;2022-12-11T11:16:29;17;16;
64138;PMS5003;50435;43.700;-79.318;2022-12-11T11:18:57;21;17;
64138;PMS5003;50435;43.700;-79.318;2022-12-11T11:21:24;16;15;
64138;PMS5003;50435;43.700;-79.318;2022-12-11T11:23:53;16;16;
64138;PMS5003;50435;43.700;-79.318;2022-12-11T11:26:21;16;14;
64138;PMS5003;50435;43.700;-79.318;2022-12-11T11:28:50;11;11;
64138;PMS5003;50435;43.700;-79.318;2022-12-11T11:31:20;17;16;
64138;PMS5003;50435;43.700;-79.318;2022-12-11T11:33:57;16;16;
64138;PMS5003;50435;43.700;-79.318;2022-12-11T11:36:28;16;16;
64138;PMS5003;50435;43.700;-79.318;2022-12-11T11:39:01;17;16;
64138;PMS5003;50435;43.700;-79.318;2022-12-11T11:41:43;16;16;
64138;PMS5003;50435;43.700;-79.318;2022-12-11T11:44:17;18;18;
64138;PMS5003;50435;43.700;-79.318;2022-12-11T11:46:52;19;18;
64138;PMS5003;50435;43.700;-79.318;2022-12-11T11:49:29;15;15;
64138;PMS5003;50435;43.700;-79.318;2022-12-11T11:52:10;15;15;
64138;PMS5003;50435;43.700;-79.318;2022-12-11T11:54:44;17;17;
64138;PMS5003;50435;43.700;-79.318;2022-12-11T11:57:19;16;12;
64138;PMS5003;50435;43.700;-79.318;2022-12-11T11:59:55;23;18;
64138;PMS5003;50435;43.700;-79.318;2022-12-11T12:02:27;17;17;
64138;PMS5003;50435;43.700;-79.318;2022-12-11T12:04:55;17;16;
64138;PMS5003;50435;43.700;-79.318;2022-12-11T12:07:25;16;15;
64138;PMS5003;50435;43.700;-79.318;2022-12-11T12:10:05;19;17;
64138;PMS5003;50435;43.700;-79.318;2022-12-11T12:12:42;18;17;
64138;PMS5003;50435;43.700;-79.318;2022-12-11T12:15:19;21;18;
64138;PMS5003;50435;43.700;-79.318;2022-12-11T12:17:54;26;21;
64138;PMS5003;50435;43.700;-79.318;2022-12-11T12:20:27;22;18;
64138;PMS5003;50435;43.700;-79.318;2022-12-11T12:23:08;23;15;
64138;PMS5003;50435;43.700;-79.318;2022-12-11T12:25:52;18;16;
64138;PMS5003;50435;43.700;-79.318;2022-12-11T12:28:26;19;18;
64138;PMS5003;50435;43.700;-79.318;2022-12-11T12:31:03;18;17;
64138;PMS5003;50435;43.700;-79.318;2022-12-11T12:33:45;24;23;
64138;PMS5003;50435;43.700;-79.318;2022-12-11T12:36:21;23;22;
64138;PMS5003;50435;43.700;-79.318;2022-12-11T12:38:57;24;24;
64138;PMS5003;50435;43.700;-79.318;2022-12-11T12:41:32;21;18;
64138;PMS5003;50435;43.700;-79.318;2022-12-11T12:44:11;26;19;
64138;PMS5003;50435;43.700;-79.318;2022-12-11T12:46:50;24;23;
64138;PMS5003;50435;43.700;-79.318;2022-12-11T12:49:29;18;17;
64138;PMS5003;50435;43.700;-79.318;2022-12-11T12:52:02;22;19;
64138;PMS5003;50435;43.700;-79.318;2022-12-11T12:54:36;18;17;
64138;PMS5003;50435;43.700;-79.318;2022-12-11T12:57:06;25;19;
64138;PMS5003;50435;43.700;-79.318;2022-12-11T12:59:34;19;19;
64138;PMS5003;50435;43.700;-79.318;2022-12-11T13:02:02;25;24;
64138;PMS5003;50435;43.700;-79.318;2022-12-11T13:04:35;19;18;
64138;PMS5003;50435;43.700;-79.318;2022-12-11T13:07:14;21;18;
64138;PMS5003;50435;43.700;-79.318;2022-12-11T13:09:54;18;17;
64138;PMS5003;50435;43.700;-79.318;2022-12-11T13:12:30;21;16;
64138;PMS5003;50435;43.700;-79.318;2022-12-11T13:15:00;18;15;
64138;PMS5003;50435;43.700;-79.318;2022-12-11T13:17:35;19;19;
64138;PMS5003;50435;43.700;-79.318;2022-12-11T13:20:12;16;14;
64138;PMS5003;50435;43.700;-79.318;2022-12-11T13:22:52;21;16;
64138;PMS5003;50435;43.700;-79.318;2022-12-11T13:25:24;19;19;
64138;PMS5003;50435;43.700;-79.318;2022-12-11T13:28:03;19;16;
64138;PMS5003;50435;43.700;-79.318;2022-12-11T13:30:33;17;15;
64138;PMS5003;50435;43.700;-79.318;2022-12-11T13:33:02;17;16;
64138;PMS5003;50435;43.700;-79.318;2022-12-11T13:35:32;19;16;
64138;PMS5003;50435;43.700;-79.318;2022-12-11T13:38:04;18;16;
64138;PMS5003;50435;43.700;-79.318;2022-12-11T13:40:36;16;14;
64138;PMS5003;50435;43.700;-79.318;2022-12-11T13:43:07;16;16;
64138;PMS5003;50435;43.700;-79.318;2022-12-11T13:45:45;16;15;
64138;PMS5003;50435;43.700;-79.318;2022-12-11T13:48:20;17;16;
64138;PMS5003;50435;43.700;-79.318;2022-12-11T13:50:51;21;21;
64138;PMS5003;50435;43.700;-79.318;2022-12-11T13:53:20;18;18;
64138;PMS5003;50435;43.700;-79.318;2022-12-11T13:55:54;16;16;
64138;PMS5003;50435;43.700;-79.318;2022-12-11T13:58:23;17;17;
64138;PMS5003;50435;43.700;-79.318;2022-12-11T14:00:55;17;17;
64138;PMS5003;50435;43.700;-79.318;2022-12-11T14:03:30;17;17;
64138;PMS5003;50435;43.700;-79.318;2022-12-11T14:05:58;19;17;
64138;PMS5003;50435;43.700;-79.318;2022-12-11T14:08:29;18;18;
64138;PMS5003;50435;43.700;-79.318;2022-12-11T14:11:00;17;14;
64138;PMS5003;50435;43.700;-79.318;2022-12-11T14:13:30;18;15;
64138;PMS5003;50435;43.700;-79.318;2022-12-11T14:16:00;15;15;
64138;PMS5003;50435;43.700;-79.318;2022-12-11T14:18:30;21;17;
64138;PMS5003;50435;43.700;-79.318;2022-12-11T14:21:02;18;16;
64138;PMS5003;50435;43.700;-79.318;2022-12-11T14:23:31;17;16;
64138;PMS5003;50435;43.700;-79.318;2022-12-11T14:26:01;18;17;
64138;PMS5003;50435;43.700;-79.318;2022-12-11T14:28:35;16;12;
64138;PMS5003;50435;43.700;-79.318;2022-12-11T14:31:05;13;13;
64138;PMS5003;50435;43.700;-79.318;2022-12-11T14:33:32;20;18;
64138;PMS5003;50435;43.700;-79.318;2022-12-11T14:36:03;22;16;
64138;PMS5003;50435;43.700;-79.318;2022-12-11T14:38:33;18;15;
64138;PMS5003;50435;43.700;-79.318;2022-12-11T14:41:04;18;16;
64138;PMS5003;50435;43.700;-79.318;2022-12-11T14:43:37;18;17;
64138;PMS5003;50435;43.700;-79.318;2022-12-11T14:46:09;17;15;
64138;PMS5003;50435;43.700;-79.318;2022-12-11T14:48:43;12;12;
64138;PMS5003;50435;43.700;-79.318;2022-12-11T14:51:18;12;12;
64138;PMS5003;50435;43.700;-79.318;2022-12-11T14:53:46;15;15;
64138;PMS5003;50435;43.700;-79.318;2022-12-11T14:56:18;16;13;
64138;PMS5003;50435;43.700;-79.318;2022-12-11T14:58:51;15;15;
64138;PMS5003;50435;43.700;-79.318;2022-12-11T15:01:23;16;13;
64138;PMS5003;50435;43.700;-79.318;2022-12-11T15:04:01;18;17;
64138;PMS5003;50435;43.700;-79.318;2022-12-11T15:06:32;16;15;
64138;PMS5003;50435;43.700;-79.318;2022-12-11T15:09:17;16;16;
64138;PMS5003;50435;43.700;-79.318;2022-12-11T15:11:46;17;15;
64138;PMS5003;50435;43.700;-79.318;2022-12-11T15:14:16;17;16;
64138;PMS5003;50435;43.700;-79.318;2022-12-11T15:16:46;16;15;
64138;PMS5003;50435;43.700;-79.318;2022-12-11T15:19:18;13;13;
64138;PMS5003;50435;43.700;-79.318;2022-12-11T15:21:48;21;20;
64138;PMS5003;50435;43.700;-79.318;2022-12-11T15:24:22;19;15;
64138;PMS5003;50435;43.700;-79.318;2022-12-11T15:26:56;16;16;
64138;PMS5003;50435;43.700;-79.318;2022-12-11T15:29:26;15;15;
64138;PMS5003;50435;43.700;-79.318;2022-12-11T15:32:00;18;15;
64138;PMS5003;50435;43.700;-79.318;2022-12-11T15:34:31;15;12;
64138;PMS5003;50435;43.700;-79.318;2022-12-11T15:37:00;12;11;
64138;PMS5003;50435;43.700;-79.318;2022-12-11T15:39:27;15;15;
64138;PMS5003;50435;43.700;-79.318;2022-12-11T15:41:54;19;15;
64138;PMS5003;50435;43.700;-79.318;2022-12-11T15:44:22;12;10;
64138;PMS5003;50435;43.700;-79.318;2022-12-11T15:46:49;15;15;
64138;PMS5003;50435;43.700;-79.318;2022-12-11T15:49:17;17;12;
64138;PMS5003;50435;43.700;-79.318;2022-12-11T15:51:44;13;12;
64138;PMS5003;50435;43.700;-79.318;2022-12-11T15:54:12;17;16;
64138;PMS5003;50435;43.700;-79.318;2022-12-11T15:56:39;18;17;
64138;PMS5003;50435;43.700;-79.318;2022-12-11T15:59:08;19;13;
64138;PMS5003;50435;43.700;-79.318;2022-12-11T16:01:36;16;13;
64138;PMS5003;50435;43.700;-79.318;2022-12-11T16:04:04;13;13;
64138;PMS5003;50435;43.700;-79.318;2022-12-11T16:06:32;15;15;
64138;PMS5003;50435;43.700;-79.318;2022-12-11T16:08:59;18;15;
64138;PMS5003;50435;43.700;-79.318;2022-12-11T16:11:27;12;12;
64138;PMS5003;50435;43.700;-79.318;2022-12-11T16:13:54;17;16;
64138;PMS5003;50435;43.700;-79.318;2022-12-11T16:16:22;13;12;
64138;PMS5003;50435;43.700;-79.318;2022-12-11T16:18:50;12;12;
64138;PMS5003;50435;43.700;-79.318;2022-12-11T16:21:17;21;17;
64138;PMS5003;50435;43.700;-79.318;2022-12-11T16:23:44;17;13;
64138;PMS5003;50435;43.700;-79.318;2022-12-11T16:26:12;16;16;
64138;PMS5003;50435;43.700;-79.318;2022-12-11T16:28:39;10;10;
64138;PMS5003;50435;43.700;-79.318;2022-12-11T16:31:08;16;16;
64138;PMS5003;50435;43.700;-79.318;2022-12-11T16:33:36;17;13;